createdAt,value
2023-01-28T00:01:43.349Z,7.55
2023-01-28T00:04:46.179Z,8.88
2023-01-28T00:07:51.857Z,8.43
2023-01-28T00:10:54.596Z,8.33
2023-01-28T00:13:57.220Z,10.53
2023-01-28T00:17:00.158Z,8.80
2023-01-28T00:20:02.924Z,7.78
2023-01-28T00:23:07.423Z,10.63
2023-01-28T00:26:13.494Z,8.53
2023-01-28T00:29:16.280Z,6.33
2023-01-28T00:32:18.992Z,8.03
2023-01-28T00:35:21.494Z,8.73
2023-01-28T00:38:25.664Z,7.47
2023-01-28T00:41:30.035Z,6.53
2023-01-28T00:44:32.879Z,8.87
2023-01-28T00:47:35.627Z,7.13
2023-01-28T00:50:39.436Z,6.73
2023-01-28T00:56:46.454Z,6.15
2023-01-28T00:59:49.007Z,6.38
2023-01-28T01:02:51.670Z,9.03
2023-01-28T01:05:54.204Z,8.97
2023-01-28T01:09:03.583Z,5.70
2023-01-28T01:12:06.634Z,6.40
2023-01-28T01:15:12.525Z,8.80
2023-01-28T01:18:15.479Z,8.13
2023-01-28T01:21:20.304Z,6.90
2023-01-28T01:24:24.398Z,6.67
2023-01-28T01:27:26.981Z,6.57
2023-01-28T01:30:29.624Z,6.57
2023-01-28T01:33:32.908Z,6.70
2023-01-28T01:36:35.609Z,6.90
2023-01-28T01:39:39.593Z,6.77
2023-01-28T01:42:42.246Z,7.10
2023-01-28T01:45:45.879Z,7.90
2023-01-28T01:48:48.810Z,9.02
2023-01-28T01:51:55.504Z,8.30
2023-01-28T01:55:00.846Z,6.43
2023-01-28T01:58:08.197Z,5.47
2023-01-28T02:01:11.684Z,6.57
2023-01-28T02:04:20.214Z,8.57
2023-01-28T02:07:23.098Z,8.10
2023-01-28T02:10:27.163Z,5.73
2023-01-28T02:13:33.076Z,6.47
2023-01-28T02:16:35.997Z,7.40
2023-01-28T02:19:40.892Z,5.80
2023-01-28T02:23:05.822Z,7.13
2023-01-28T02:26:22.665Z,9.83
2023-01-28T02:29:28.892Z,5.43
2023-01-28T02:32:36.197Z,5.27
2023-01-28T02:35:43.147Z,4.70
2023-01-28T02:38:48.928Z,9.57
2023-01-28T02:41:56.384Z,6.33
2023-01-28T02:45:00.460Z,6.93
2023-01-28T02:48:02.128Z,5.23
2023-01-28T02:51:11.856Z,6.23
2023-01-28T02:54:18.825Z,5.80
2023-01-28T02:57:31.666Z,3.87
2023-01-28T03:00:45.179Z,7.97
2023-01-28T03:03:57.167Z,5.70
2023-01-28T03:07:04.261Z,5.20
2023-01-28T03:10:10.410Z,4.70
2023-01-28T03:13:30.500Z,3.80
2023-01-28T03:16:52.575Z,5.17
2023-01-28T03:20:13.071Z,5.07
2023-01-28T03:23:36.759Z,6.20
2023-01-28T03:27:01.661Z,6.75
2023-01-28T03:30:28.063Z,7.20
2023-01-28T03:33:50.727Z,8.33
2023-01-28T03:36:54.588Z,7.83
2023-01-28T03:43:00.861Z,7.15
2023-01-28T03:46:06.217Z,6.13
2023-01-28T03:49:10.283Z,6.57
2023-01-28T03:52:13.356Z,8.67
2023-01-28T03:55:16.799Z,7.38
2023-01-28T03:58:20.490Z,9.77
2023-01-28T04:01:23.098Z,7.18
2023-01-28T04:04:28.161Z,9.27
2023-01-28T04:07:30.849Z,10.37
2023-01-28T04:10:33.432Z,8.37
2023-01-28T04:13:35.994Z,9.50
2023-01-28T04:16:38.581Z,8.03
2023-01-28T04:19:42.833Z,9.17
2023-01-28T04:22:45.552Z,10.17
2023-01-28T04:25:51.099Z,8.60
2023-01-28T04:28:53.780Z,8.00
2023-01-28T04:31:56.987Z,9.03
2023-01-28T04:35:00.928Z,9.05
2023-01-28T04:41:06.411Z,10.47
2023-01-28T04:47:12.587Z,10.00
2023-01-28T04:50:17.293Z,8.37
2023-01-28T04:53:20.008Z,11.00
2023-01-28T04:56:22.653Z,11.03
2023-01-28T04:59:25.529Z,9.03
2023-01-28T05:02:28.307Z,10.93
2023-01-28T05:05:32.323Z,10.83
2023-01-28T05:08:35.049Z,10.17
2023-01-28T05:11:39.245Z,10.93
2023-01-28T05:14:42.152Z,8.97
2023-01-28T05:17:45.050Z,9.93
2023-01-28T05:20:49.017Z,9.03
2023-01-28T05:23:51.574Z,9.70
2023-01-28T05:26:54.378Z,8.73
2023-01-28T05:29:57.066Z,9.80
2023-01-28T05:32:59.820Z,11.30
2023-01-28T05:36:04.061Z,10.93
2023-01-28T05:39:07.629Z,12.20
2023-01-28T05:42:10.429Z,11.95
2023-01-28T05:45:13.881Z,8.83
2023-01-28T05:48:16.709Z,12.63
2023-01-28T05:51:20.894Z,10.23
2023-01-28T05:54:23.454Z,9.63
2023-01-28T05:57:26.130Z,10.00
2023-01-28T06:00:29.121Z,12.07
2023-01-28T06:03:31.884Z,11.13
2023-01-28T06:06:35.981Z,12.90
2023-01-28T06:09:38.711Z,10.07
2023-01-28T06:12:41.464Z,12.07
2023-01-28T06:15:44.340Z,9.77
2023-01-28T06:18:47.038Z,10.77
2023-01-28T06:21:51.013Z,11.37
2023-01-28T06:24:53.891Z,13.77
2023-01-28T06:27:56.573Z,10.38
2023-01-28T06:30:59.380Z,11.63
2023-01-28T06:34:02.000Z,12.37
2023-01-28T06:37:06.102Z,10.23
2023-01-28T06:40:10.326Z,11.90
2023-01-28T06:43:12.983Z,12.47
2023-01-28T06:46:15.802Z,11.20
2023-01-28T06:49:18.452Z,11.67
2023-01-28T06:52:22.736Z,10.20
2023-01-28T06:55:25.524Z,13.20
2023-01-28T06:58:28.756Z,10.57
2023-01-28T07:01:31.589Z,12.88
2023-01-28T07:04:34.319Z,10.80
2023-01-28T07:07:40.739Z,12.30
2023-01-28T07:10:44.712Z,11.87
2023-01-28T07:13:47.500Z,11.02
2023-01-28T07:16:50.317Z,10.93
2023-01-28T07:19:53.012Z,12.83
2023-01-28T07:22:56.992Z,10.33
2023-01-28T07:26:03.020Z,10.43
2023-01-28T07:29:05.637Z,10.13
2023-01-28T07:32:08.515Z,9.67
2023-01-28T07:35:11.783Z,12.13
2023-01-28T07:38:16.256Z,12.00
2023-01-28T07:41:18.993Z,12.20
2023-01-28T07:44:22.025Z,12.40
2023-01-28T07:47:24.622Z,12.32
2023-01-28T07:50:29.105Z,8.37
2023-01-28T07:53:33.525Z,12.23
2023-01-28T07:56:36.252Z,9.83
2023-01-28T07:59:39.224Z,12.40
2023-01-28T08:02:44.994Z,11.93
2023-01-28T08:05:49.162Z,12.60
2023-01-28T08:08:53.329Z,10.47
2023-01-28T08:11:56.012Z,11.40
2023-01-28T08:14:58.708Z,11.30
2023-01-28T08:18:01.853Z,12.20
2023-01-28T08:21:05.501Z,12.18
2023-01-28T08:24:09.806Z,10.85
2023-01-28T08:27:12.509Z,12.30
2023-01-28T08:30:15.887Z,12.07
2023-01-28T08:33:19.948Z,13.50
2023-01-28T08:39:26.387Z,12.37
2023-01-28T08:42:28.998Z,10.87
2023-01-28T08:45:32.053Z,18.30
2023-01-28T08:48:34.696Z,13.05
2023-01-28T08:51:37.366Z,11.67
2023-01-28T08:54:41.352Z,12.57
2023-01-28T08:57:44.160Z,11.17
2023-01-28T09:00:47.506Z,13.10
2023-01-28T09:03:50.413Z,13.27
2023-01-28T09:06:53.218Z,13.45
2023-01-28T09:09:57.204Z,16.93
2023-01-28T09:12:59.881Z,13.23
2023-01-28T09:16:06.093Z,14.43
2023-01-28T09:19:08.841Z,13.63
2023-01-28T09:22:11.787Z,14.50
2023-01-28T09:25:15.770Z,16.20
2023-01-28T09:28:18.611Z,13.77
2023-01-28T09:31:21.399Z,13.80
2023-01-28T09:34:24.006Z,14.77
2023-01-28T09:37:26.815Z,13.47
2023-01-28T09:40:36.002Z,13.87
2023-01-28T09:43:51.713Z,15.57
2023-01-28T09:46:54.381Z,14.03
2023-01-28T09:50:00.337Z,15.70
2023-01-28T09:53:06.959Z,15.53
2023-01-28T09:56:14.641Z,14.23
2023-01-28T09:59:20.239Z,15.43
2023-01-28T10:02:39.150Z,15.27
2023-01-28T10:05:48.253Z,14.00
2023-01-28T10:09:22.564Z,16.40
2023-01-28T10:12:40.726Z,14.77
2023-01-28T10:15:51.570Z,14.10
2023-01-28T10:18:57.386Z,15.93
2023-01-28T10:22:03.332Z,18.07
2023-01-28T10:25:09.588Z,15.60
2023-01-28T10:28:20.182Z,16.07
2023-01-28T10:31:23.770Z,15.47
2023-01-28T10:34:26.804Z,21.05
2023-01-28T10:37:30.168Z,18.25
2023-01-28T10:40:33.051Z,13.00
2023-01-28T10:43:39.713Z,13.53
2023-01-28T10:46:45.560Z,15.63
2023-01-28T10:49:51.934Z,16.63
2023-01-28T10:52:56.072Z,16.53
2023-01-28T10:56:01.399Z,15.67
2023-01-28T10:59:07.598Z,19.33
2023-01-28T11:02:26.017Z,16.27
2023-01-28T11:05:30.856Z,15.63
2023-01-28T11:08:44.898Z,17.03
2023-01-28T11:11:47.544Z,14.65
2023-01-28T11:14:56.990Z,16.77
2023-01-28T11:18:02.137Z,17.13
2023-01-28T11:21:06.589Z,17.33
2023-01-28T11:24:16.209Z,17.93
2023-01-28T11:27:20.032Z,18.67
2023-01-28T11:30:27.606Z,15.85
2023-01-28T11:33:34.129Z,16.33
2023-01-28T11:36:36.804Z,19.40
2023-01-28T11:39:40.869Z,17.83
2023-01-28T11:42:43.654Z,16.17
2023-01-28T11:45:53.612Z,16.57
2023-01-28T11:49:02.310Z,16.77
2023-01-28T11:52:14.004Z,17.97
2023-01-28T11:55:33.409Z,16.30
2023-01-28T11:58:45.273Z,15.93
2023-01-28T12:01:53.603Z,19.50
2023-01-28T12:05:10.007Z,17.33
2023-01-28T12:08:19.594Z,22.43
2023-01-28T12:12:00.031Z,21.90
2023-01-28T12:15:26.169Z,15.60
2023-01-28T12:18:50.604Z,15.27
2023-01-28T12:22:07.061Z,19.37
2023-01-28T12:25:21.530Z,15.90
2023-01-28T12:28:30.733Z,17.23
2023-01-28T12:31:43.409Z,20.50
2023-01-28T12:35:00.120Z,23.10
2023-01-28T12:38:10.281Z,18.10
2023-01-28T12:41:16.327Z,21.57
2023-01-28T12:44:23.695Z,17.77
2023-01-28T12:47:30.193Z,16.60
2023-01-28T12:50:37.877Z,18.30
2023-01-28T12:53:43.923Z,14.47
2023-01-28T12:56:51.178Z,20.00
2023-01-28T12:59:57.830Z,22.60
2023-01-28T13:03:10.887Z,21.83
2023-01-28T13:06:18.024Z,14.87
2023-01-28T13:09:22.958Z,14.67
2023-01-28T13:12:25.734Z,12.40
2023-01-28T13:15:28.758Z,13.80
2023-01-28T13:18:34.938Z,14.05
2023-01-28T13:21:48.635Z,13.27
2023-01-28T13:24:52.097Z,10.57
2023-01-28T13:28:00.249Z,8.57
2023-01-28T13:31:04.817Z,7.60
2023-01-28T13:34:08.830Z,13.13
2023-01-28T13:37:26.123Z,9.10
2023-01-28T13:40:30.172Z,10.20
2023-01-28T13:43:38.666Z,8.23
2023-01-28T13:46:41.406Z,11.37
2023-01-28T13:49:45.972Z,10.10
2023-01-28T13:52:57.210Z,10.97
2023-01-28T13:56:00.219Z,9.13
2023-01-28T13:59:15.585Z,11.23
2023-01-28T14:02:52.816Z,11.77
2023-01-28T14:06:22.937Z,9.43
2023-01-28T14:09:54.219Z,10.10
2023-01-28T14:13:21.351Z,10.83
2023-01-28T14:16:31.789Z,10.20
2023-01-28T14:19:38.119Z,9.57
2023-01-28T14:22:42.480Z,10.23
2023-01-28T14:25:55.476Z,11.53
2023-01-28T14:29:06.387Z,12.20
2023-01-28T14:32:14.507Z,10.60
2023-01-28T14:35:21.416Z,11.83
2023-01-28T14:38:25.392Z,10.00
2023-01-28T14:41:29.827Z,10.83
2023-01-28T14:44:40.671Z,14.00
2023-01-28T14:48:00.866Z,11.17
2023-01-28T14:51:13.521Z,11.57
2023-01-28T14:54:26.699Z,12.80
2023-01-28T14:57:55.750Z,9.60
2023-01-28T15:01:00.897Z,10.13
2023-01-28T15:07:17.689Z,9.07
2023-01-28T15:10:49.233Z,7.68
2023-01-28T15:21:17.003Z,6.03
2023-01-28T15:24:19.865Z,7.20
2023-01-28T15:27:28.431Z,7.20
2023-01-28T15:30:32.478Z,8.80
2023-01-28T15:33:35.263Z,8.63
2023-01-28T15:36:39.617Z,8.30
2023-01-28T15:39:42.296Z,8.50
2023-01-28T15:42:46.969Z,12.60
2023-01-28T15:45:51.387Z,6.77
2023-01-28T15:49:00.410Z,6.57
2023-01-28T15:52:05.095Z,7.63
2023-01-28T15:55:30.012Z,6.57
2023-01-28T16:02:41.366Z,8.93
2023-01-28T16:05:56.855Z,8.03
2023-01-28T16:09:02.963Z,5.37
2023-01-28T16:12:31.243Z,6.33
2023-01-28T16:15:36.596Z,7.70
2023-01-28T16:18:55.373Z,8.53
2023-01-28T16:22:14.068Z,6.60
2023-01-28T16:25:35.950Z,8.40
2023-01-28T16:29:14.142Z,9.03
2023-01-28T16:32:49.868Z,8.37
2023-01-28T16:39:49.047Z,6.97
2023-01-28T16:42:55.080Z,7.67
2023-01-28T16:46:09.337Z,8.30
2023-01-28T16:49:20.379Z,7.80
2023-01-28T16:52:22.949Z,7.40
2023-01-28T16:55:25.697Z,8.97
2023-01-28T16:58:29.985Z,8.53
2023-01-28T17:01:32.757Z,5.97
2023-01-28T17:04:35.511Z,9.00
2023-01-28T17:07:38.267Z,7.70
2023-01-28T17:10:40.833Z,7.00
2023-01-28T17:13:44.906Z,10.00
2023-01-28T17:19:50.170Z,8.67
2023-01-28T17:22:52.863Z,10.93
2023-01-28T17:25:55.466Z,7.13
2023-01-28T17:28:59.839Z,8.50
2023-01-28T17:32:02.673Z,14.97
2023-01-28T17:35:06.407Z,7.40
2023-01-28T17:38:10.391Z,7.72
2023-01-28T17:41:14.795Z,8.93
2023-01-28T17:44:19.685Z,7.07
2023-01-28T17:47:22.344Z,7.23
2023-01-28T17:50:24.981Z,8.03
2023-01-28T17:53:27.662Z,7.90
2023-01-28T17:56:31.201Z,8.47
2023-01-28T17:59:35.207Z,7.53
2023-01-28T18:02:37.773Z,9.37
2023-01-28T18:05:40.451Z,13.17
2023-01-28T18:08:43.208Z,8.13
2023-01-28T18:11:46.182Z,7.33
2023-01-28T18:14:50.422Z,7.43
2023-01-28T18:17:53.499Z,10.97
2023-01-28T18:20:58.819Z,10.82
2023-01-28T18:24:02.405Z,9.67
2023-01-28T18:27:05.175Z,8.68
2023-01-28T18:30:11.223Z,10.97
2023-01-28T18:33:13.886Z,8.87
2023-01-28T18:36:17.097Z,8.60
2023-01-28T18:39:20.987Z,11.50
2023-01-28T18:45:27.796Z,10.50
2023-01-28T18:48:30.915Z,9.47
2023-01-28T18:51:33.537Z,11.30
2023-01-28T18:54:36.555Z,12.83
2023-01-28T18:57:39.939Z,10.32
2023-01-28T19:00:43.974Z,9.15
2023-01-28T19:03:46.920Z,10.67
2023-01-28T19:06:49.950Z,9.35
2023-01-28T19:09:52.536Z,14.35
2023-01-28T19:12:55.329Z,11.33
2023-01-28T19:16:02.537Z,9.50
2023-01-28T19:19:05.489Z,8.50
2023-01-28T19:22:08.506Z,8.55
2023-01-28T19:25:11.392Z,9.25
2023-01-28T19:28:14.124Z,6.75
2023-01-28T19:31:19.720Z,11.40
2023-01-28T19:34:22.398Z,8.73
2023-01-28T19:37:25.613Z,8.77
2023-01-28T19:40:28.497Z,8.93
2023-01-28T19:43:31.456Z,9.50
2023-01-28T19:46:37.110Z,7.28
2023-01-28T19:49:39.851Z,11.50
2023-01-28T19:52:42.699Z,9.40
2023-01-28T19:55:45.412Z,14.48
2023-01-28T19:58:48.161Z,10.13
2023-01-28T20:01:52.564Z,9.37
2023-01-28T20:05:00.866Z,9.33
2023-01-28T20:08:04.630Z,11.93
2023-01-28T20:11:09.056Z,10.07
2023-01-28T20:14:11.899Z,10.13
2023-01-28T20:17:15.974Z,10.40
2023-01-28T20:20:18.905Z,8.90
2023-01-28T20:23:21.836Z,10.13
2023-01-28T20:26:26.127Z,13.55
2023-01-28T20:29:28.728Z,9.20
2023-01-28T20:32:33.544Z,8.77
2023-01-28T20:35:36.517Z,7.83
2023-01-28T20:38:40.428Z,8.57
2023-01-28T20:44:45.624Z,8.43
2023-01-28T20:47:50.019Z,9.13
2023-01-28T20:50:52.706Z,9.07
2023-01-28T20:53:55.949Z,10.70
2023-01-28T20:56:58.637Z,8.45
2023-01-28T21:00:01.216Z,9.77
2023-01-28T21:03:05.300Z,11.23
2023-01-28T21:06:08.213Z,16.93
2023-01-28T21:09:11.101Z,9.23
2023-01-28T21:12:14.011Z,9.18
2023-01-28T21:15:17.028Z,9.25
2023-01-28T21:18:21.328Z,9.38
2023-01-28T21:21:25.846Z,9.63
2023-01-28T21:24:28.989Z,9.53
2023-01-28T21:27:33.497Z,11.73
2023-01-28T21:30:36.316Z,9.27
2023-01-28T21:33:40.496Z,8.00
2023-01-28T21:36:43.563Z,8.07
2023-01-28T21:39:46.256Z,15.45
2023-01-28T21:42:48.892Z,9.90
2023-01-28T21:45:56.105Z,8.27
2023-01-28T21:49:01.283Z,8.70
2023-01-28T21:52:03.994Z,9.23
2023-01-28T21:55:07.561Z,10.20
2023-01-28T21:58:24.276Z,10.07
2023-01-28T22:01:27.616Z,8.60
2023-01-28T22:04:33.768Z,8.63
2023-01-28T22:07:36.459Z,7.27
2023-01-28T22:10:39.121Z,8.00
2023-01-28T22:13:42.680Z,10.87
2023-01-28T22:16:45.540Z,8.73
2023-01-28T22:19:49.894Z,8.70
2023-01-28T22:22:52.553Z,9.13
2023-01-28T22:25:55.916Z,8.70
2023-01-28T22:28:59.114Z,9.15
2023-01-28T22:32:04.083Z,7.18
2023-01-28T22:35:08.755Z,10.93
2023-01-28T22:38:11.595Z,11.47
2023-01-28T22:41:18.949Z,7.20
2023-01-28T22:44:21.588Z,7.17
2023-01-28T22:47:24.307Z,8.53
2023-01-28T22:50:28.519Z,8.80
2023-01-28T22:53:31.299Z,9.37
2023-01-28T22:56:33.886Z,7.77
2023-01-28T22:59:36.507Z,6.53
2023-01-28T23:02:39.198Z,8.20
2023-01-28T23:05:43.591Z,7.60
2023-01-28T23:08:47.005Z,8.60
2023-01-28T23:11:49.730Z,10.25
2023-01-28T23:15:10.185Z,8.30
2023-01-28T23:18:31.704Z,7.50
2023-01-28T23:21:54.873Z,10.97
2023-01-28T23:24:57.626Z,6.17
2023-01-28T23:28:01.247Z,7.50
2023-01-28T23:31:04.037Z,7.55
2023-01-28T23:34:07.514Z,8.02
2023-01-28T23:37:12.852Z,9.60
2023-01-28T23:40:16.721Z,6.70
2023-01-28T23:43:19.571Z,7.23
2023-01-28T23:46:37.831Z,9.13
2023-01-28T23:49:41.922Z,6.03
2023-01-28T23:52:46.141Z,8.57
2023-01-28T23:55:48.743Z,7.30
2023-01-28T23:58:51.500Z,10.47
